Time;durP1;ratioP1;P1;durP2;ratioP2;P2;SDS_P1;SDS_P2;PMS_P1;PMS_P2;Temp;Humidity;BMP_temperature;BMP_pressure;BME280_temperature;BME280_humidity;BME280_pressure;Samples;Min_cycle;Max_cycle;Signal;HPM_P1;HPM_P2
2023/09/15 00:01:36;;;;;;;;;;;22.90;52.50;;;;;;5072547;28;19915;-56
2023/09/15 00:04:05;;;;;;;;;;;22.90;52.60;;;;;;5071255;28;19912;-55
2023/09/15 00:06:32;;;;;;;;;;;22.90;52.50;;;;;;5072563;28;19909;-55
2023/09/15 00:08:57;;;;;;;;;;;22.80;52.40;;;;;;5071263;28;19913;-55
2023/09/15 00:11:23;;;;;;;;;;;22.80;52.50;;;;;;5072400;28;19930;-57
2023/09/15 00:13:48;;;;;;;;;;;22.80;52.50;;;;;;5072312;28;20351;-55
2023/09/15 00:16:14;;;;;;;;;;;22.90;52.60;;;;;;5072417;28;19913;-55
2023/09/15 00:18:41;;;;;;;;;;;22.80;52.50;;;;;;5072381;28;19999;-56
2023/09/15 00:21:09;;;;;;;;;;;22.80;52.50;;;;;;5072241;28;19916;-55
2023/09/15 00:23:37;;;;;;;;;;;22.80;52.50;;;;;;5072272;28;19909;-55
2023/09/15 00:26:03;;;;;;;;;;;22.80;52.50;;;;;;5070996;28;20312;-56
2023/09/15 00:28:28;;;;;;;;;;;22.80;52.50;;;;;;5070994;28;20003;-56
2023/09/15 00:30:55;;;;;;;;;;;22.80;52.50;;;;;;5072614;28;19967;-55
2023/09/15 00:33:20;;;;;;;;;;;22.80;52.50;;;;;;5072192;28;19916;-55
2023/09/15 00:35:47;;;;;;;;;;;22.80;52.50;;;;;;5072398;28;19909;-55
2023/09/15 00:38:13;;;;;;;;;;;22.90;52.60;;;;;;5072881;28;20441;-56
2023/09/15 00:40:39;;;;;;;;;;;22.80;52.50;;;;;;5074434;28;19912;-55
2023/09/15 00:43:04;;;;;;;;;;;22.70;52.50;;;;;;5075695;28;19913;-55
2023/09/15 00:45:29;;;;;;;;;;;22.80;52.50;;;;;;5075645;28;19912;-55
2023/09/15 00:47:58;;;;;;;;;;;22.70;52.50;;;;;;5075492;28;20003;-55
2023/09/15 00:50:25;;;;;;;;;;;22.80;52.50;;;;;;5074305;28;19908;-56
2023/09/15 00:53:11;;;;;;;;;;;22.80;52.50;;;;;;5074087;28;19920;-56
2023/09/15 00:55:37;;;;;;;;;;;22.80;52.50;;;;;;5075111;28;19908;-55
2023/09/15 00:58:03;;;;;;;;;;;22.80;52.60;;;;;;5075337;28;19999;-55
2023/09/15 01:00:29;;;;;;;;;;;22.80;52.60;;;;;;5075335;28;19908;-55
2023/09/15 01:02:54;;;;;;;;;;;22.70;52.60;;;;;;5074119;28;19965;-55
2023/09/15 01:05:23;;;;;;;;;;;22.70;52.70;;;;;;5074081;28;19915;-55
2023/09/15 01:07:50;;;;;;;;;;;22.70;52.80;;;;;;5075095;28;19984;-55
2023/09/15 01:10:15;;;;;;;;;;;22.70;52.80;;;;;;5073854;28;19912;-55
2023/09/15 01:12:44;;;;;;;;;;;22.70;52.80;;;;;;5075126;28;19961;-55
2023/09/15 01:15:09;;;;;;;;;;;22.70;52.70;;;;;;5056947;28;20281;-56
2023/09/15 01:17:43;;;;;;;;;;;22.70;52.70;;;;;;5075033;28;19912;-55
2023/09/15 01:20:10;;;;;;;;;;;22.70;52.80;;;;;;5073630;28;20011;-55
2023/09/15 01:22:59;;;;;;;;;;;22.70;52.80;;;;;;5073788;28;20465;-55
2023/09/15 01:25:45;;;;;;;;;;;22.70;52.80;;;;;;5066332;28;19970;-54
2023/09/15 01:28:29;;;;;;;;;;;22.60;52.70;;;;;;5073622;28;19919;-56
2023/09/15 01:30:54;;;;;;;;;;;22.60;52.70;;;;;;5074855;28;19909;-56
2023/09/15 01:33:20;;;;;;;;;;;22.60;52.70;;;;;;5073478;28;19915;-56
2023/09/15 01:35:45;;;;;;;;;;;22.70;52.80;;;;;;5073509;28;19909;-55
2023/09/15 01:38:11;;;;;;;;;;;22.60;52.70;;;;;;5073297;28;20388;-55
2023/09/15 01:40:37;;;;;;;;;;;22.60;52.70;;;;;;5074508;28;20001;-55
2023/09/15 01:43:03;;;;;;;;;;;22.60;52.70;;;;;;5074678;28;19916;-56
2023/09/15 01:45:29;;;;;;;;;;;22.60;52.70;;;;;;5074346;28;19909;-55
2023/09/15 01:47:55;;;;;;;;;;;22.60;53.00;;;;;;5073337;28;19908;-56
2023/09/15 01:50:20;;;;;;;;;;;22.60;52.70;;;;;;5072504;28;19954;-55
2023/09/15 01:52:46;;;;;;;;;;;22.60;52.70;;;;;;5074149;28;19920;-56
2023/09/15 01:55:11;;;;;;;;;;;22.60;52.70;;;;;;5072954;28;19970;-55
2023/09/15 01:57:37;;;;;;;;;;;22.60;52.60;;;;;;5072884;28;19952;-55
2023/09/15 02:00:03;;;;;;;;;;;22.60;52.50;;;;;;5074053;28;19916;-55
2023/09/15 02:02:28;;;;;;;;;;;22.60;52.50;;;;;;5074102;28;19967;-55
2023/09/15 02:04:54;;;;;;;;;;;22.50;52.40;;;;;;5074006;28;20364;-56
2023/09/15 02:07:19;;;;;;;;;;;22.50;52.30;;;;;;5073930;28;19931;-55
2023/09/15 02:09:45;;;;;;;;;;;22.50;52.40;;;;;;5074099;28;19996;-55
2023/09/15 02:12:10;;;;;;;;;;;22.60;52.50;;;;;;5073875;28;19908;-55
2023/09/15 02:14:36;;;;;;;;;;;22.50;52.40;;;;;;5073845;28;19930;-55
2023/09/15 02:17:01;;;;;;;;;;;22.50;52.60;;;;;;5073778;28;20371;-55
2023/09/15 02:19:29;;;;;;;;;;;22.60;52.70;;;;;;5073817;28;19908;-55
2023/09/15 02:21:54;;;;;;;;;;;22.50;52.50;;;;;;5073726;28;20417;-55
2023/09/15 02:24:20;;;;;;;;;;;22.50;52.70;;;;;;5073574;28;19978;-56
2023/09/15 02:26:45;;;;;;;;;;;22.50;52.50;;;;;;5053732;28;20003;-56
2023/09/15 02:29:11;;;;;;;;;;;22.50;52.50;;;;;;5053515;28;19917;-56
2023/09/15 02:31:38;;;;;;;;;;;22.50;52.30;;;;;;5053632;28;20292;-55
2023/09/15 02:34:04;;;;;;;;;;;22.50;52.40;;;;;;5053635;28;19915;-55
2023/09/15 02:36:29;;;;;;;;;;;22.50;52.30;;;;;;5053597;28;19999;-55
2023/09/15 02:38:55;;;;;;;;;;;22.50;52.40;;;;;;5053453;28;20003;-56
2023/09/15 02:41:20;;;;;;;;;;;22.50;52.50;;;;;;5053371;28;19912;-55
2023/09/15 02:43:46;;;;;;;;;;;22.40;52.50;;;;;;5053363;28;19909;-55
2023/09/15 02:46:11;;;;;;;;;;;22.40;52.40;;;;;;5053387;28;19909;-55
2023/09/15 02:48:37;;;;;;;;;;;22.40;52.40;;;;;;5053168;28;19920;-55
2023/09/15 02:51:04;;;;;;;;;;;22.50;52.40;;;;;;5053049;28;20346;-55
2023/09/15 02:53:29;;;;;;;;;;;22.50;52.40;;;;;;5053317;28;19958;-55
2023/09/15 02:56:03;;;;;;;;;;;22.40;52.30;;;;;;5067065;28;19999;-56
2023/09/15 02:58:28;;;;;;;;;;;22.40;52.30;;;;;;5072121;28;20391;-55
2023/09/15 03:00:54;;;;;;;;;;;22.40;52.50;;;;;;5072106;28;19909;-55
2023/09/15 03:03:22;;;;;;;;;;;22.40;52.50;;;;;;5073050;28;20367;-55
2023/09/15 03:05:48;;;;;;;;;;;22.40;52.40;;;;;;5073021;28;20326;-55
2023/09/15 03:08:14;;;;;;;;;;;22.40;52.40;;;;;;5071772;28;20015;-55
2023/09/15 03:10:40;;;;;;;;;;;22.40;52.40;;;;;;5073020;28;19909;-55
2023/09/15 03:13:05;;;;;;;;;;;22.40;52.40;;;;;;5071626;28;19982;-56
2023/09/15 03:15:32;;;;;;;;;;;22.40;52.40;;;;;;5073099;28;20035;-55
2023/09/15 03:17:57;;;;;;;;;;;22.40;52.40;;;;;;5072890;28;19909;-56
2023/09/15 03:20:23;;;;;;;;;;;22.30;52.30;;;;;;5072884;28;20325;-55
2023/09/15 03:22:50;;;;;;;;;;;22.40;52.50;;;;;;5072809;28;20275;-55
2023/09/15 03:25:16;;;;;;;;;;;22.40;52.40;;;;;;5073254;28;19919;-55
2023/09/15 03:27:41;;;;;;;;;;;22.30;52.40;;;;;;5072886;28;19909;-55
2023/09/15 03:30:07;;;;;;;;;;;22.30;52.40;;;;;;5072718;28;19912;-55
2023/09/15 03:32:33;;;;;;;;;;;22.30;52.50;;;;;;5072939;28;19957;-55
2023/09/15 03:34:58;;;;;;;;;;;22.30;52.50;;;;;;5071650;28;19959;-55
2023/09/15 03:37:24;;;;;;;;;;;22.30;52.50;;;;;;5072783;28;19915;-56
2023/09/15 03:39:49;;;;;;;;;;;22.30;52.40;;;;;;5072686;28;19909;-55
2023/09/15 03:42:15;;;;;;;;;;;22.30;52.30;;;;;;5071468;28;19912;-55
2023/09/15 03:44:40;;;;;;;;;;;22.30;52.40;;;;;;5072778;28;19908;-55
2023/09/15 03:47:06;;;;;;;;;;;22.30;52.30;;;;;;5072617;28;19916;-56
2023/09/15 03:49:31;;;;;;;;;;;22.30;52.40;;;;;;5072654;28;19963;-55
2023/09/15 03:51:57;;;;;;;;;;;22.30;52.50;;;;;;5072384;28;19974;-55
2023/09/15 03:54:23;;;;;;;;;;;22.30;52.50;;;;;;5072450;28;19913;-55
2023/09/15 03:56:49;;;;;;;;;;;22.30;52.50;;;;;;5072604;28;19912;-55
2023/09/15 03:59:14;;;;;;;;;;;22.20;52.50;;;;;;5072509;28;19970;-55
2023/09/15 04:01:39;;;;;;;;;;;22.30;52.50;;;;;;5072651;28;19908;-55
2023/09/15 04:04:05;;;;;;;;;;;22.20;52.50;;;;;;5072491;28;19916;-55
2023/09/15 04:06:32;;;;;;;;;;;22.20;52.40;;;;;;5072728;28;19908;-56
2023/09/15 04:08:57;;;;;;;;;;;22.20;52.30;;;;;;5071240;28;19962;-55
2023/09/15 04:11:23;;;;;;;;;;;22.20;52.30;;;;;;5072325;28;19916;-55
2023/09/15 04:13:48;;;;;;;;;;;22.20;52.40;;;;;;5075343;28;20296;-55
2023/09/15 04:16:13;;;;;;;;;;;22.20;53.10;;;;;;5074858;28;20007;-55
2023/09/15 04:18:40;;;;;;;;;;;22.20;52.40;;;;;;5076099;28;19908;-55
2023/09/15 04:21:06;;;;;;;;;;;22.20;52.40;;;;;;5076109;28;20391;-55
2023/09/15 04:23:31;;;;;;;;;;;22.20;52.50;;;;;;5076079;28;19908;-55
2023/09/15 04:25:57;;;;;;;;;;;22.20;52.50;;;;;;5075928;28;19958;-56
2023/09/15 04:28:22;;;;;;;;;;;22.20;52.50;;;;;;5076106;28;19916;-55
2023/09/15 04:30:48;;;;;;;;;;;22.20;52.60;;;;;;5076202;28;19939;-56
2023/09/15 04:33:13;;;;;;;;;;;22.20;52.50;;;;;;5075963;28;19931;-56
2023/09/15 04:35:39;;;;;;;;;;;22.20;52.60;;;;;;5075915;28;19961;-55
2023/09/15 04:38:04;;;;;;;;;;;22.10;52.50;;;;;;5075754;28;19909;-55
2023/09/15 04:40:30;;;;;;;;;;;22.10;52.60;;;;;;5075700;28;19921;-55
2023/09/15 04:42:55;;;;;;;;;;;22.10;52.50;;;;;;5075680;28;20327;-55
2023/09/15 04:45:21;;;;;;;;;;;22.10;52.60;;;;;;5075737;28;19908;-56
2023/09/15 04:47:46;;;;;;;;;;;22.10;52.70;;;;;;5075665;28;20333;-55
2023/09/15 04:50:12;;;;;;;;;;;22.10;52.70;;;;;;5075549;28;19916;-55
2023/09/15 04:52:37;;;;;;;;;;;22.10;52.70;;;;;;5075342;28;19924;-55
2023/09/15 04:55:03;;;;;;;;;;;22.10;52.60;;;;;;5075367;28;19908;-55
2023/09/15 04:57:28;;;;;;;;;;;22.10;52.70;;;;;;5074264;28;19915;-55
2023/09/15 04:59:54;;;;;;;;;;;22.10;52.70;;;;;;5075311;28;19984;-55
2023/09/15 05:02:22;;;;;;;;;;;22.00;52.70;;;;;;5075281;28;20323;-55
2023/09/15 05:04:48;;;;;;;;;;;22.00;52.70;;;;;;5073987;28;20435;-55
2023/09/15 05:07:13;;;;;;;;;;;22.00;52.70;;;;;;5075230;28;19954;-55
2023/09/15 05:09:39;;;;;;;;;;;22.00;52.80;;;;;;5075210;28;19913;-55
2023/09/15 05:12:04;;;;;;;;;;;22.00;52.70;;;;;;5075574;28;19962;-55
2023/09/15 05:14:30;;;;;;;;;;;22.00;52.70;;;;;;5073785;28;19908;-55
2023/09/15 05:16:56;;;;;;;;;;;22.00;52.80;;;;;;5075223;28;20299;-55
2023/09/15 05:19:21;;;;;;;;;;;22.00;52.80;;;;;;5074996;28;20395;-54
2023/09/15 05:21:46;;;;;;;;;;;22.00;52.70;;;;;;5074921;28;20311;-55
2023/09/15 05:24:12;;;;;;;;;;;22.00;52.80;;;;;;5072564;28;20405;-56
2023/09/15 05:26:37;;;;;;;;;;;22.00;52.80;;;;;;5074798;28;19908;-55
2023/09/15 05:29:03;;;;;;;;;;;22.00;52.70;;;;;;5074777;28;20292;-55
2023/09/15 05:31:29;;;;;;;;;;;22.00;52.70;;;;;;5074792;28;19914;-56
2023/09/15 05:33:54;;;;;;;;;;;22.00;53.40;;;;;;5074694;28;20375;-55
2023/09/15 05:36:20;;;;;;;;;;;22.00;52.80;;;;;;5074582;28;19977;-55
2023/09/15 05:38:48;;;;;;;;;;;22.00;52.80;;;;;;5074603;28;19913;-55
2023/09/15 05:41:14;;;;;;;;;;;22.00;52.90;;;;;;5074458;28;19916;-56
2023/09/15 05:43:39;;;;;;;;;;;22.00;52.90;;;;;;5074549;28;20369;-55
2023/09/15 05:46:05;;;;;;;;;;;22.00;52.90;;;;;;5074491;28;19909;-55
2023/09/15 05:48:30;;;;;;;;;;;22.00;53.50;;;;;;5074486;28;19913;-55
2023/09/15 05:50:56;;;;;;;;;;;22.00;52.90;;;;;;5074441;28;20400;-55
2023/09/15 05:53:21;;;;;;;;;;;21.90;53.00;;;;;;5074360;28;20284;-55
2023/09/15 05:55:47;;;;;;;;;;;21.90;53.00;;;;;;5073071;28;19924;-55
2023/09/15 05:58:13;;;;;;;;;;;21.90;53.10;;;;;;5074323;28;19951;-55
2023/09/15 06:00:39;;;;;;;;;;;21.90;53.10;;;;;;5074424;28;20425;-55
2023/09/15 06:03:05;;;;;;;;;;;22.00;53.10;;;;;;5074116;28;19966;-55
2023/09/15 06:05:30;;;;;;;;;;;21.90;53.00;;;;;;5074169;28;19939;-55
2023/09/15 06:07:56;;;;;;;;;;;21.90;53.10;;;;;;5074047;28;19908;-55
2023/09/15 06:10:21;;;;;;;;;;;21.90;53.00;;;;;;5074015;28;19915;-55
2023/09/15 06:12:50;;;;;;;;;;;21.90;53.20;;;;;;5074130;28;20371;-55
2023/09/15 06:15:15;;;;;;;;;;;21.90;53.10;;;;;;5073788;28;19912;-55
2023/09/15 06:17:41;;;;;;;;;;;21.90;53.20;;;;;;5072618;28;20364;-55
2023/09/15 06:20:06;;;;;;;;;;;21.90;53.10;;;;;;5073689;28;19962;-55
2023/09/15 06:22:32;;;;;;;;;;;21.90;53.20;;;;;;5074023;28;19915;-55
2023/09/15 06:24:58;;;;;;;;;;;21.90;53.20;;;;;;5073836;28;19991;-55
2023/09/15 06:27:23;;;;;;;;;;;21.90;53.20;;;;;;5073714;28;20106;-55
2023/09/15 06:29:48;;;;;;;;;;;21.90;53.30;;;;;;5073530;28;19913;-56
2023/09/15 06:32:14;;;;;;;;;;;21.90;53.30;;;;;;5073598;28;19909;-55
2023/09/15 06:34:40;;;;;;;;;;;21.90;53.40;;;;;;5073619;28;19908;-55
2023/09/15 06:37:06;;;;;;;;;;;21.80;53.30;;;;;;5073220;28;19908;-55
2023/09/15 06:39:31;;;;;;;;;;;21.90;53.50;;;;;;5072236;28;20379;-55
2023/09/15 06:41:57;;;;;;;;;;;21.80;53.40;;;;;;5073555;28;19916;-55
2023/09/15 06:44:22;;;;;;;;;;;21.90;53.50;;;;;;5073465;28;20486;-56
2023/09/15 06:46:48;;;;;;;;;;;21.80;53.50;;;;;;5072059;28;19909;-55
2023/09/15 06:49:15;;;;;;;;;;;21.80;53.60;;;;;;5073136;28;19932;-55
2023/09/15 06:51:40;;;;;;;;;;;21.80;53.50;;;;;;5073228;28;19996;-56
2023/09/15 06:54:05;;;;;;;;;;;21.80;53.50;;;;;;5073218;28;20335;-55
2023/09/15 06:56:31;;;;;;;;;;;21.80;53.60;;;;;;5073002;28;19908;-55
2023/09/15 06:58:56;;;;;;;;;;;21.80;53.60;;;;;;5073134;28;19912;-55
2023/09/15 07:01:22;;;;;;;;;;;21.80;53.70;;;;;;5073040;28;19970;-55
2023/09/15 07:03:48;;;;;;;;;;;21.80;53.70;;;;;;5073063;28;19908;-55
2023/09/15 07:06:13;;;;;;;;;;;21.80;53.70;;;;;;5073118;28;19912;-55
2023/09/15 07:08:39;;;;;;;;;;;21.80;53.80;;;;;;5073281;28;19913;-55
2023/09/15 07:11:05;;;;;;;;;;;21.70;53.80;;;;;;5073052;28;19999;-56
2023/09/15 07:13:30;;;;;;;;;;;21.70;53.90;;;;;;5073142;28;19908;-55
2023/09/15 07:15:55;;;;;;;;;;;21.70;53.90;;;;;;5073047;28;20001;-55
2023/09/15 07:18:21;;;;;;;;;;;21.80;53.90;;;;;;5072922;28;19912;-55
2023/09/15 07:20:46;;;;;;;;;;;21.80;53.90;;;;;;5073033;28;19908;-55
2023/09/15 07:23:12;;;;;;;;;;;21.80;54.00;;;;;;5072814;28;20565;-55
2023/09/15 07:25:37;;;;;;;;;;;21.80;53.90;;;;;;5072888;28;20399;-55
2023/09/15 07:28:03;;;;;;;;;;;21.70;54.00;;;;;;5072697;28;20007;-55
2023/09/15 07:30:29;;;;;;;;;;;21.70;54.10;;;;;;5072920;28;19947;-55
2023/09/15 07:32:54;;;;;;;;;;;21.70;54.00;;;;;;5072742;28;19959;-55
2023/09/15 07:35:22;;;;;;;;;;;21.70;54.10;;;;;;5072705;28;20076;-55
2023/09/15 07:37:48;;;;;;;;;;;21.70;54.10;;;;;;5072738;28;19913;-56
2023/09/15 07:40:13;;;;;;;;;;;21.70;54.10;;;;;;5072590;28;20387;-55
2023/09/15 07:42:39;;;;;;;;;;;21.70;54.20;;;;;;5072773;28;19908;-56
2023/09/15 07:45:04;;;;;;;;;;;21.70;54.30;;;;;;5072708;28;19965;-55
2023/09/15 07:47:30;;;;;;;;;;;21.70;54.30;;;;;;5073929;28;19908;-55
2023/09/15 07:49:57;;;;;;;;;;;21.70;54.30;;;;;;5076629;28;19935;-55
2023/09/15 07:52:24;;;;;;;;;;;21.70;55.10;;;;;;5076573;28;20395;-55
2023/09/15 07:54:50;;;;;;;;;;;21.70;54.50;;;;;;5076679;28;20315;-55
2023/09/15 07:57:15;;;;;;;;;;;21.70;54.50;;;;;;5075243;28;19916;-55
2023/09/15 07:59:41;;;;;;;;;;;21.70;54.50;;;;;;5076672;28;19916;-55
2023/09/15 08:02:06;;;;;;;;;;;21.70;54.60;;;;;;5076481;28;19916;-55
2023/09/15 08:04:32;;;;;;;;;;;21.70;54.70;;;;;;5076485;28;19909;-55
2023/09/15 08:06:57;;;;;;;;;;;21.70;54.80;;;;;;5076513;28;19908;-55
2023/09/15 08:09:23;;;;;;;;;;;21.70;54.90;;;;;;5076370;28;19916;-55
2023/09/15 08:11:48;;;;;;;;;;;21.70;54.90;;;;;;5076497;28;19908;-55
2023/09/15 08:14:14;;;;;;;;;;;21.70;54.90;;;;;;5076239;28;19915;-55
2023/09/15 08:16:39;;;;;;;;;;;21.70;54.90;;;;;;5076143;28;19912;-55
2023/09/15 08:19:05;;;;;;;;;;;21.70;54.90;;;;;;5074747;28;19908;-55
2023/09/15 08:21:30;;;;;;;;;;;21.70;55.10;;;;;;5076054;28;19931;-55
2023/09/15 08:23:56;;;;;;;;;;;21.70;55.10;;;;;;5076016;28;20276;-55
2023/09/15 08:26:21;;;;;;;;;;;21.70;55.10;;;;;;5075834;28;20265;-56
2023/09/15 08:28:47;;;;;;;;;;;21.70;55.20;;;;;;5076032;28;20018;-55
2023/09/15 08:31:13;;;;;;;;;;;21.70;55.20;;;;;;5075855;28;19916;-56
2023/09/15 08:33:38;;;;;;;;;;;21.70;55.20;;;;;;5075931;28;20365;-55
2023/09/15 08:36:04;;;;;;;;;;;21.70;55.20;;;;;;5075762;28;20369;-55
2023/09/15 08:38:31;;;;;;;;;;;21.70;55.20;;;;;;5075680;28;19963;-55
2023/09/15 08:41:09;;;;;;;;;;;21.70;55.20;;;;;;5075680;28;19999;-55
2023/09/15 08:43:34;;;;;;;;;;;21.70;55.20;;;;;;5075711;28;20284;-55
2023/09/15 08:46:00;;;;;;;;;;;21.70;55.20;;;;;;5075615;28;19915;-55
2023/09/15 08:48:25;;;;;;;;;;;21.70;55.20;;;;;;5075528;28;19962;-55
2023/09/15 08:50:51;;;;;;;;;;;21.70;55.20;;;;;;5074181;28;19915;-55
2023/09/15 08:53:16;;;;;;;;;;;21.70;54.90;;;;;;5074241;28;19957;-55
2023/09/15 08:55:42;;;;;;;;;;;21.80;55.20;;;;;;5075458;28;19908;-55
2023/09/15 08:58:07;;;;;;;;;;;21.80;55.10;;;;;;5075252;28;19935;-55
2023/09/15 09:00:33;;;;;;;;;;;21.80;55.30;;;;;;5074156;28;19913;-55
2023/09/15 09:02:59;;;;;;;;;;;21.80;55.20;;;;;;5075272;28;20296;-55
2023/09/15 09:05:25;;;;;;;;;;;21.80;55.10;;;;;;5075429;28;19908;-55
2023/09/15 09:07:50;;;;;;;;;;;21.80;54.90;;;;;;5075123;28;19915;-55
2023/09/15 09:10:16;;;;;;;;;;;21.90;55.20;;;;;;5075127;28;19912;-55
2023/09/15 09:12:42;;;;;;;;;;;21.90;55.10;;;;;;5074042;28;19995;-55
2023/09/15 09:15:09;;;;;;;;;;;21.90;55.10;;;;;;5075049;28;19947;-55
2023/09/15 09:17:34;;;;;;;;;;;21.90;55.20;;;;;;5075126;28;19909;-55
2023/09/15 09:20:00;;;;;;;;;;;21.90;55.20;;;;;;5074919;28;20265;-56
2023/09/15 09:22:25;;;;;;;;;;;21.90;55.10;;;;;;5073600;28;20350;-55
2023/09/15 09:24:55;;;;;;;;;;;21.90;55.10;;;;;;5074928;28;19908;-56
2023/09/15 09:27:21;;;;;;;;;;;21.90;55.00;;;;;;5075004;28;19916;-55
2023/09/15 09:29:46;;;;;;;;;;;21.90;54.80;;;;;;5074744;28;19912;-55
2023/09/15 09:32:14;;;;;;;;;;;21.90;54.70;;;;;;5074914;28;20392;-55
2023/09/15 09:34:40;;;;;;;;;;;21.90;54.70;;;;;;5074817;28;19909;-55
2023/09/15 09:37:05;;;;;;;;;;;21.90;54.70;;;;;;5074669;28;19958;-55
2023/09/15 09:39:31;;;;;;;;;;;22.00;54.80;;;;;;5074708;28;20009;-56
2023/09/15 09:41:57;;;;;;;;;;;22.10;54.40;;;;;;5074527;28;19915;-56
2023/09/15 09:44:23;;;;;;;;;;;22.10;54.20;;;;;;5073412;28;19951;-55
2023/09/15 09:46:50;;;;;;;;;;;22.10;54.10;;;;;;5073257;28;19984;-56
2023/09/15 09:49:16;;;;;;;;;;;22.00;54.00;;;;;;5074273;28;19916;-55
2023/09/15 09:51:41;;;;;;;;;;;22.10;54.20;;;;;;5074298;28;19921;-55
2023/09/15 09:54:07;;;;;;;;;;;22.20;54.20;;;;;;5074292;28;19909;-55
2023/09/15 09:56:35;;;;;;;;;;;22.20;54.00;;;;;;5074218;28;19916;-55
2023/09/15 09:59:15;;;;;;;;;;;22.20;54.00;;;;;;5074325;28;19908;-56
2023/09/15 10:01:41;;;;;;;;;;;22.20;54.00;;;;;;5074245;28;19908;-55
2023/09/15 10:04:07;;;;;;;;;;;22.20;54.00;;;;;;5074204;28;20010;-55
2023/09/15 10:06:36;;;;;;;;;;;22.20;54.00;;;;;;5074022;28;19908;-55
2023/09/15 10:09:07;;;;;;;;;;;22.30;54.10;;;;;;5074133;28;20368;-55
2023/09/15 10:11:33;;;;;;;;;;;22.20;54.00;;;;;;5073553;28;19999;-55
2023/09/15 10:14:00;;;;;;;;;;;22.20;54.00;;;;;;5073911;28;19915;-55
2023/09/15 10:16:25;;;;;;;;;;;22.30;54.10;;;;;;5073799;28;20382;-55
2023/09/15 10:18:50;;;;;;;;;;;22.40;53.90;;;;;;5073825;28;20039;-56
2023/09/15 10:21:16;;;;;;;;;;;22.40;53.90;;;;;;5072626;28;19916;-55
2023/09/15 10:23:41;;;;;;;;;;;22.40;54.00;;;;;;5073821;28;19935;-55
2023/09/15 10:26:09;;;;;;;;;;;22.40;54.00;;;;;;5073602;28;19909;-55
2023/09/15 10:28:34;;;;;;;;;;;22.40;53.90;;;;;;5073653;28;20287;-55
2023/09/15 10:31:00;;;;;;;;;;;22.50;53.90;;;;;;5073675;28;19916;-55
2023/09/15 10:33:25;;;;;;;;;;;22.50;54.10;;;;;;5073465;28;19908;-55
2023/09/15 10:35:51;;;;;;;;;;;22.50;54.10;;;;;;5073575;28;19980;-55
2023/09/15 10:38:26;;;;;;;;;;;22.50;53.90;;;;;;5073403;28;19908;-55
2023/09/15 10:40:51;;;;;;;;;;;22.50;54.10;;;;;;5073443;28;19908;-55
2023/09/15 10:43:17;;;;;;;;;;;22.50;54.10;;;;;;5073306;28;20386;-55
2023/09/15 10:45:52;;;;;;;;;;;22.50;54.30;;;;;;5073459;28;19909;-55
2023/09/15 10:48:18;;;;;;;;;;;22.60;54.40;;;;;;5073124;28;19948;-55
2023/09/15 10:50:44;;;;;;;;;;;22.60;54.40;;;;;;5073154;28;19959;-55
2023/09/15 10:53:09;;;;;;;;;;;22.50;54.40;;;;;;5073271;28;19905;-55
2023/09/15 10:55:35;;;;;;;;;;;22.60;54.60;;;;;;5073555;28;19954;-55
2023/09/15 10:58:04;;;;;;;;;;;22.60;54.50;;;;;;5073297;28;20389;-55
2023/09/15 11:00:32;;;;;;;;;;;22.70;54.60;;;;;;5073281;28;19909;-55
2023/09/15 11:02:58;;;;;;;;;;;22.80;54.40;;;;;;5073271;28;19912;-55
2023/09/15 11:05:24;;;;;;;;;;;22.80;54.40;;;;;;5071935;28;20061;-55
2023/09/15 11:07:49;;;;;;;;;;;22.80;54.40;;;;;;5072051;28;20432;-55
2023/09/15 11:10:15;;;;;;;;;;;22.90;54.40;;;;;;5071796;28;20086;-56
2023/09/15 11:12:40;;;;;;;;;;;22.90;54.30;;;;;;5073122;28;19912;-55
2023/09/15 11:15:06;;;;;;;;;;;22.90;54.30;;;;;;5072934;28;19931;-55
2023/09/15 11:17:31;;;;;;;;;;;22.80;54.40;;;;;;5071634;28;19908;-55
2023/09/15 11:20:05;;;;;;;;;;;22.80;54.40;;;;;;5072879;28;19915;-55
2023/09/15 11:22:31;;;;;;;;;;;22.80;54.60;;;;;;5079031;28;19908;-55
2023/09/15 11:24:56;;;;;;;;;;;22.80;54.60;;;;;;5072800;28;19956;-55
2023/09/15 11:27:22;;;;;;;;;;;22.80;54.30;;;;;;5072785;28;19924;-56
2023/09/15 11:29:47;;;;;;;;;;;22.90;54.00;;;;;;5072830;28;19912;-55
2023/09/15 11:32:13;;;;;;;;;;;22.90;53.60;;;;;;5072851;28;19920;-55
2023/09/15 11:34:38;;;;;;;;;;;22.80;53.70;;;;;;5071706;28;19991;-56
2023/09/15 11:37:04;;;;;;;;;;;22.80;53.80;;;;;;5071478;28;19915;-55
2023/09/15 11:39:29;;;;;;;;;;;22.80;53.80;;;;;;5071693;28;19915;-55
2023/09/15 11:41:55;;;;;;;;;;;22.80;53.90;;;;;;5072721;28;20280;-56
2023/09/15 11:44:24;;;;;;;;;;;22.90;53.90;;;;;;5072726;28;19908;-55
2023/09/15 11:46:50;;;;;;;;;;;23.00;53.60;;;;;;5071608;28;20386;-55
2023/09/15 11:49:16;;;;;;;;;;;23.10;53.60;;;;;;5072411;28;19987;-56
2023/09/15 11:51:42;;;;;;;;;;;23.10;53.20;;;;;;5071405;28;19928;-55
2023/09/15 11:54:08;;;;;;;;;;;23.10;53.40;;;;;;5072568;28;19908;-55
2023/09/15 11:56:33;;;;;;;;;;;23.10;53.50;;;;;;5072485;28;19919;-55
2023/09/15 11:58:58;;;;;;;;;;;23.00;53.30;;;;;;5072432;28;19920;-55
2023/09/15 12:01:24;;;;;;;;;;;23.10;53.40;;;;;;5072479;28;20360;-56
2023/09/15 12:03:50;;;;;;;;;;;23.00;53.20;;;;;;5072615;28;20407;-55
2023/09/15 12:06:18;;;;;;;;;;;23.00;53.30;;;;;;5072424;28;19920;-55
2023/09/15 12:08:50;;;;;;;;;;;23.10;52.80;;;;;;5072460;28;19922;-55
2023/09/15 12:11:15;;;;;;;;;;;23.10;52.80;;;;;;5072356;28;19913;-55
2023/09/15 12:13:41;;;;;;;;;;;23.20;52.60;;;;;;5072433;28;19908;-55
2023/09/15 12:16:07;;;;;;;;;;;23.20;52.50;;;;;;5072497;28;19912;-55
2023/09/15 12:18:36;;;;;;;;;;;23.10;52.70;;;;;;5072523;28;20384;-56
2023/09/15 12:21:02;;;;;;;;;;;23.20;52.80;;;;;;5072488;28;20284;-56
2023/09/15 12:23:28;;;;;;;;;;;23.30;52.80;;;;;;5072551;28;19909;-56
2023/09/15 12:25:53;;;;;;;;;;;23.30;52.70;;;;;;5072373;28;20396;-56
2023/09/15 12:28:19;;;;;;;;;;;23.40;52.70;;;;;;5072261;28;19993;-56
2023/09/15 12:30:47;;;;;;;;;;;23.40;52.70;;;;;;5072262;28;19909;-55
2023/09/15 12:33:16;;;;;;;;;;;23.50;52.50;;;;;;5072721;28;19916;-56
2023/09/15 12:35:42;;;;;;;;;;;23.50;52.50;;;;;;5076034;28;19931;-55
2023/09/15 12:38:07;;;;;;;;;;;23.50;52.40;;;;;;5075912;28;19909;-55
2023/09/15 12:40:34;;;;;;;;;;;23.60;52.70;;;;;;5075782;28;19969;-55
2023/09/15 12:42:59;;;;;;;;;;;23.50;52.30;;;;;;5075944;28;19912;-56
2023/09/15 12:45:26;;;;;;;;;;;23.50;52.20;;;;;;5075574;28;19908;-55
2023/09/15 12:47:51;;;;;;;;;;;23.50;52.10;;;;;;5075645;28;19916;-56
2023/09/15 12:50:17;;;;;;;;;;;23.50;52.50;;;;;;5075611;28;19913;-56
2023/09/15 12:52:42;;;;;;;;;;;23.50;52.20;;;;;;5075746;28;19928;-55
2023/09/15 12:55:08;;;;;;;;;;;23.60;52.10;;;;;;5075462;28;19908;-56
2023/09/15 12:57:33;;;;;;;;;;;23.50;52.00;;;;;;5075832;28;19916;-56
2023/09/15 12:59:59;;;;;;;;;;;23.50;52.20;;;;;;5075563;28;19909;-55
2023/09/15 13:02:24;;;;;;;;;;;23.50;52.40;;;;;;5075372;28;19909;-55
2023/09/15 13:04:50;;;;;;;;;;;23.40;52.50;;;;;;5075430;28;20361;-55
2023/09/15 13:07:15;;;;;;;;;;;23.40;52.20;;;;;;5075199;28;20001;-56
2023/09/15 13:09:41;;;;;;;;;;;23.40;52.40;;;;;;5075145;28;20402;-55
2023/09/15 13:12:07;;;;;;;;;;;23.40;52.60;;;;;;5075237;28;19909;-55
2023/09/15 13:14:34;;;;;;;;;;;23.50;52.40;;;;;;5075199;28;19908;-56
2023/09/15 13:16:59;;;;;;;;;;;23.50;52.30;;;;;;5075136;28;20299;-55
2023/09/15 13:19:25;;;;;;;;;;;23.50;52.20;;;;;;5075378;28;20003;-56
2023/09/15 13:21:50;;;;;;;;;;;23.50;52.10;;;;;;5075095;28;20008;-56
2023/09/15 13:24:16;;;;;;;;;;;23.50;52.50;;;;;;5074917;28;19920;-55
2023/09/15 13:26:41;;;;;;;;;;;23.50;52.40;;;;;;5073719;28;20353;-56
2023/09/15 13:29:07;;;;;;;;;;;23.50;52.30;;;;;;5074975;28;19916;-55
2023/09/15 13:31:33;;;;;;;;;;;23.60;52.50;;;;;;5075068;28;19974;-55
2023/09/15 13:33:59;;;;;;;;;;;23.60;52.40;;;;;;5074690;28;19919;-55
2023/09/15 13:36:25;;;;;;;;;;;23.60;52.60;;;;;;5074841;28;19909;-55
2023/09/15 13:38:51;;;;;;;;;;;23.50;52.50;;;;;;5074801;28;19988;-56
2023/09/15 13:41:16;;;;;;;;;;;23.50;52.70;;;;;;5073349;28;19999;-55
2023/09/15 13:43:42;;;;;;;;;;;23.60;52.80;;;;;;5074484;28;19961;-55
2023/09/15 13:46:08;;;;;;;;;;;23.60;52.30;;;;;;5073475;28;19915;-55
2023/09/15 13:48:34;;;;;;;;;;;23.60;52.50;;;;;;5074369;28;20285;-55
2023/09/15 13:50:59;;;;;;;;;;;23.60;52.70;;;;;;5074218;28;20314;-55
2023/09/15 13:53:24;;;;;;;;;;;23.60;52.50;;;;;;5074370;28;19913;-55
2023/09/15 13:55:52;;;;;;;;;;;23.50;52.60;;;;;;5074323;28;19991;-55
2023/09/15 13:58:18;;;;;;;;;;;23.60;52.70;;;;;;5072971;28;19930;-56
2023/09/15 14:00:56;;;;;;;;;;;23.60;52.80;;;;;;5072978;28;19995;-55
2023/09/15 14:03:23;;;;;;;;;;;23.60;52.80;;;;;;5072759;28;19916;-55
2023/09/15 14:05:48;;;;;;;;;;;23.70;52.80;;;;;;5072894;28;19908;-56
2023/09/15 14:08:14;;;;;;;;;;;23.70;52.50;;;;;;5073991;28;19962;-56
2023/09/15 14:10:39;;;;;;;;;;;23.60;52.60;;;;;;5073955;28;19909;-56